Wednesday, November 22, 2017, 7:57 AM EST
Back to Local

KHPN, White Plains Westchester

Location: Greenwich, NY, United States Lat: 41.067
Local Time: 7:57 AM EST (12:57 GMT) Lon: -73.7
Time Zone: US/Eastern Elev: 439 ft

Show me the last for .
Show Coded

Time T Td Feel RH Dir Speed Gust Alt SLP Vis Weather Sky Remarks
2017-11-22 06:56 47 44 45 89 140° 5 - 29.90 29.90 10 BKN038 OVC110 1-hr Precip Total: Trace
6-hr Precip Total (7am): 0.00"
6-hr Min Temp (7am): 43.0°F
6-hr Max Temp (7am): 48.0°F
2017-11-22 05:56 47 43 - 86 - Calm - 29.89 29.90 10 -DZ SCT036 BKN050 OVC090 1-hr Precip Total: Trace
2017-11-22 04:56 45 42 - 89 - Calm - 29.92 29.93 10 SCT037 BKN110 None
2017-11-22 03:56 44 40 - 85 - Calm - 29.94 29.95 10 BKN080 None
2017-11-22 02:56 43 40 - 88 - Calm - 29.96 29.97 10 CLR None
2017-11-22 01:56 45 39 - 79 - Calm - 29.98 29.99 10 CLR None
2017-11-22 00:56 45 39 - 79 - Calm - 29.99 30.00 10 CLR 6-hr Min Temp (1am): 42.1°F
6-hr Max Temp (1am): 48.9°F
2017-11-21 23:56 42 39 - 88 - Calm - 30.01 30.02 10 CLR 24-hr Min Temp (12am): 35.1°F
24-hr Max Temp (12am): 55.9°F
2017-11-21 22:56 44 37 - 76 - Calm - 30.02 30.03 10 CLR None
2017-11-21 21:56 44 37 42 76 170° 5 - 30.03 30.04 10 CLR None
2017-11-21 20:56 47 38 46 70 Variable 3 - 30.03 30.04 10 CLR None
2017-11-21 19:56 48 40 45 73 Variable 6 - 30.03 30.04 10 CLR None
2017-11-21 18:56 48 41 45 76 180° 6 - 30.02 30.03 10 CLR 6-hr Min Temp (7pm): 48.0°F
6-hr Max Temp (7pm): 55.9°F
2017-11-21 17:56 49 39 47 68 170° 6 - 30.02 30.03 10 CLR None
2017-11-21 16:56 51 32 - 47 180° 7 - 30.01 30.02 10 CLR None
2017-11-21 15:56 53 36 - 52 170° 7 - 29.99 30.00 10 CLR None
2017-11-21 14:56 56 28 - 34 190° 9 16 30.01 30.02 10 CLR None
2017-11-21 13:56 55 30 - 38 220° 9 16 30.02 30.03 10 CLR None
2017-11-21 12:56 54 29 - 38 210° 10 16 30.03 30.04 10 CLR 6-hr Min Temp (1pm): 37.9°F
6-hr Max Temp (1pm): 55.0°F
2017-11-21 11:56 53 30 - 41 200° 12 21 30.05 30.06 10 CLR None
2017-11-21 10:56 51 29 - 42 210° 13 24 30.08 30.09 10 CLR None
2017-11-21 09:56 49 31 45 49 170° 9 - 30.11 30.12 10 CLR None
2017-11-21 08:56 45 30 42 55 170° 6 - 30.12 30.13 10 CLR None

Support USWX by starting your Amazon purchase here.